createdAt,value
2017-12-19T00:01:20.011Z,30.20
2017-12-19T00:03:48.402Z,31.53
2017-12-19T00:06:16.804Z,33.17
2017-12-19T00:08:45.429Z,30.50
2017-12-19T00:11:14.275Z,29.40
2017-12-19T00:13:42.645Z,28.07
2017-12-19T00:16:11.250Z,29.83
2017-12-19T00:18:39.687Z,31.73
2017-12-19T00:21:07.590Z,30.03
2017-12-19T00:23:35.319Z,30.80
2017-12-19T00:26:03.373Z,28.13
2017-12-19T00:28:31.571Z,31.33
2017-12-19T00:30:59.926Z,31.17
2017-12-19T00:33:28.458Z,31.40
2017-12-19T00:35:56.984Z,29.40
2017-12-19T00:38:24.688Z,30.40
2017-12-19T00:40:53.043Z,28.53
2017-12-19T00:43:21.428Z,30.57
2017-12-19T00:45:49.455Z,30.10
2017-12-19T00:48:18.587Z,30.03
2017-12-19T00:50:46.672Z,30.03
2017-12-19T00:53:14.744Z,29.23
2017-12-19T00:55:42.820Z,29.10
2017-12-19T00:58:10.542Z,26.17
2017-12-19T01:00:38.919Z,25.90
2017-12-19T01:03:07.262Z,27.20
2017-12-19T01:05:35.633Z,28.07
2017-12-19T01:08:04.753Z,26.40
2017-12-19T01:10:34.036Z,26.77
2017-12-19T01:13:04.223Z,26.37
2017-12-19T01:15:32.276Z,23.27
2017-12-19T01:18:00.648Z,26.03
2017-12-19T01:20:29.032Z,24.47
2017-12-19T01:22:57.449Z,23.70
2017-12-19T01:25:25.858Z,24.80
2017-12-19T01:27:55.093Z,22.87
2017-12-19T01:30:23.619Z,23.93
2017-12-19T01:32:52.778Z,24.60
2017-12-19T01:35:21.125Z,22.37
2017-12-19T01:37:49.576Z,23.30
2017-12-19T01:40:18.518Z,26.17
2017-12-19T01:42:47.045Z,23.53
2017-12-19T01:45:16.004Z,24.57
2017-12-19T01:47:44.521Z,22.33
2017-12-19T01:50:13.888Z,22.40
2017-12-19T01:52:42.223Z,22.23
2017-12-19T01:55:10.831Z,21.13
2017-12-19T01:57:39.184Z,23.30
2017-12-19T02:00:08.353Z,21.97
2017-12-19T02:02:36.844Z,21.40
2017-12-19T02:05:05.241Z,22.50
2017-12-19T02:07:34.219Z,21.90
2017-12-19T02:10:03.176Z,21.90
2017-12-19T02:12:31.914Z,21.47
2017-12-19T02:15:00.285Z,19.87
2017-12-19T02:17:28.036Z,22.97
2017-12-19T02:19:56.559Z,20.43
2017-12-19T02:22:24.293Z,20.33
2017-12-19T02:24:52.763Z,21.03
2017-12-19T02:27:22.171Z,19.47
2017-12-19T02:29:49.890Z,20.63
2017-12-19T02:32:17.604Z,20.27
2017-12-19T02:34:45.292Z,20.53
2017-12-19T02:37:13.002Z,19.00
2017-12-19T02:39:41.509Z,19.70
2017-12-19T02:42:09.253Z,18.60
2017-12-19T02:44:37.727Z,19.53
2017-12-19T02:47:06.194Z,18.83
2017-12-19T02:49:33.949Z,19.47
2017-12-19T02:52:02.563Z,20.67
2017-12-19T02:54:30.832Z,19.70
2017-12-19T02:56:59.303Z,17.57
2017-12-19T02:59:27.935Z,19.80
2017-12-19T03:01:55.813Z,19.80
2017-12-19T03:04:23.669Z,21.33
2017-12-19T03:06:51.410Z,20.13
2017-12-19T03:09:19.218Z,20.60
2017-12-19T03:11:46.941Z,19.27
2017-12-19T03:14:14.821Z,18.67
2017-12-19T03:16:42.521Z,18.40
2017-12-19T03:19:10.346Z,19.33
2017-12-19T03:21:38.060Z,20.60
2017-12-19T03:24:06.117Z,18.87
2017-12-19T03:26:33.853Z,19.73
2017-12-19T03:29:01.809Z,20.30
2017-12-19T03:31:29.525Z,19.90
2017-12-19T03:33:57.218Z,21.90
2017-12-19T03:36:24.950Z,19.90
2017-12-19T03:38:53.528Z,20.60
2017-12-19T03:41:22.023Z,20.13
2017-12-19T03:43:50.491Z,22.27
2017-12-19T03:46:18.200Z,21.67
2017-12-19T03:48:45.898Z,20.97
2017-12-19T03:51:13.594Z,19.60
2017-12-19T03:53:42.052Z,20.30
2017-12-19T03:56:09.932Z,21.43
2017-12-19T03:58:38.405Z,22.33
2017-12-19T04:01:06.104Z,20.30
2017-12-19T04:03:33.807Z,20.63
2017-12-19T04:06:01.613Z,18.80
2017-12-19T04:08:31.376Z,19.60
2017-12-19T04:10:59.059Z,19.40
2017-12-19T04:13:27.955Z,21.93
2017-12-19T04:15:56.433Z,20.90
2017-12-19T04:18:24.668Z,20.23
2017-12-19T04:20:52.547Z,21.50
2017-12-19T04:23:20.694Z,20.40
2017-12-19T04:25:48.730Z,18.60
2017-12-19T04:28:16.467Z,21.17
2017-12-19T04:30:44.542Z,21.00
2017-12-19T04:33:12.991Z,22.90
2017-12-19T04:35:41.045Z,22.60
2017-12-19T04:38:08.774Z,23.57
2017-12-19T04:40:37.281Z,23.33
2017-12-19T04:43:05.100Z,21.60
2017-12-19T04:45:33.482Z,22.73
2017-12-19T04:48:01.848Z,21.80
2017-12-19T04:50:29.736Z,20.40
2017-12-19T04:52:58.186Z,21.80
2017-12-19T04:55:26.111Z,23.07
2017-12-19T04:57:54.312Z,21.80
2017-12-19T05:00:22.654Z,22.00
2017-12-19T05:02:50.642Z,22.70
2017-12-19T05:05:18.324Z,23.53
2017-12-19T05:07:46.034Z,22.43
2017-12-19T05:10:14.303Z,21.57
2017-12-19T05:12:42.781Z,21.60
2017-12-19T05:15:11.250Z,23.30
2017-12-19T05:17:39.883Z,22.30
2017-12-19T05:20:07.717Z,22.90
2017-12-19T05:22:36.185Z,21.83
2017-12-19T05:25:05.004Z,22.10
2017-12-19T05:27:32.718Z,22.03
2017-12-19T05:30:00.917Z,21.70
2017-12-19T05:32:29.382Z,24.63
2017-12-19T05:34:58.359Z,21.87
2017-12-19T05:37:26.238Z,21.87
2017-12-19T05:39:54.805Z,22.27
2017-12-19T05:42:22.528Z,22.73
2017-12-19T05:44:50.319Z,19.60
2017-12-19T05:47:18.374Z,21.80
2017-12-19T05:49:46.440Z,21.80
2017-12-19T05:52:14.138Z,22.73
2017-12-19T05:54:42.483Z,21.47
2017-12-19T05:57:11.140Z,22.00
2017-12-19T05:59:38.895Z,20.70
2017-12-19T06:02:07.147Z,22.93
2017-12-19T06:04:35.199Z,23.23
2017-12-19T06:07:02.939Z,19.97
2017-12-19T06:09:30.645Z,24.20
2017-12-19T06:11:59.019Z,21.57
2017-12-19T06:14:27.096Z,22.73
2017-12-19T06:16:55.983Z,22.83
2017-12-19T06:19:23.819Z,22.50
2017-12-19T06:21:51.668Z,22.83
2017-12-19T06:24:19.833Z,22.47
2017-12-19T06:26:47.881Z,21.53
2017-12-19T06:29:16.415Z,23.13
2017-12-19T06:31:44.149Z,23.67
2017-12-19T06:34:11.915Z,21.50
2017-12-19T06:36:40.302Z,21.63
2017-12-19T06:39:08.011Z,21.00
2017-12-19T06:41:35.717Z,21.30
2017-12-19T06:44:03.428Z,23.40
2017-12-19T06:46:31.463Z,22.43
2017-12-19T06:48:59.599Z,20.67
2017-12-19T06:51:27.294Z,22.17
2017-12-19T06:53:55.945Z,20.97
2017-12-19T06:56:24.723Z,20.63
2017-12-19T06:58:52.525Z,21.33
2017-12-19T07:01:20.562Z,21.33
2017-12-19T07:03:49.015Z,22.30
2017-12-19T07:06:16.736Z,25.17
2017-12-19T07:08:44.481Z,21.00
2017-12-19T07:11:12.767Z,22.33
2017-12-19T07:13:40.800Z,25.73
2017-12-19T07:16:09.392Z,23.20
2017-12-19T07:18:38.551Z,21.43
2017-12-19T07:21:06.259Z,22.03
2017-12-19T07:23:35.381Z,22.27
2017-12-19T07:26:03.347Z,23.27
2017-12-19T07:28:31.364Z,19.67
2017-12-19T07:30:59.172Z,23.80
2017-12-19T07:33:27.350Z,20.80
2017-12-19T07:35:55.075Z,21.70
2017-12-19T07:38:23.923Z,23.40
2017-12-19T07:40:51.614Z,25.40
2017-12-19T07:43:19.706Z,25.53
2017-12-19T07:45:48.010Z,27.03
2017-12-19T07:48:16.582Z,24.03
2017-12-19T07:50:44.950Z,21.53
2017-12-19T07:53:14.351Z,25.70
2017-12-19T07:55:43.584Z,24.07
2017-12-19T07:58:11.987Z,24.63
2017-12-19T08:00:41.874Z,25.90
2017-12-19T08:03:10.253Z,26.37
2017-12-19T08:05:38.622Z,25.33
2017-12-19T08:08:07.167Z,27.00
2017-12-19T08:10:36.315Z,24.60
2017-12-19T08:13:04.754Z,24.93
2017-12-19T08:15:33.563Z,23.57
2017-12-19T08:18:01.270Z,27.83
2017-12-19T08:20:29.626Z,24.33
2017-12-19T08:22:58.083Z,27.57
2017-12-19T08:25:26.468Z,25.13
2017-12-19T08:27:54.817Z,24.70
2017-12-19T08:30:24.682Z,23.67
2017-12-19T08:32:53.027Z,25.83
2017-12-19T08:35:21.550Z,25.73
2017-12-19T08:37:49.909Z,27.03
2017-12-19T08:40:18.289Z,25.40
2017-12-19T08:42:46.669Z,23.83
2017-12-19T08:45:15.050Z,24.57
2017-12-19T08:47:43.421Z,25.77
2017-12-19T08:50:30.673Z,24.13
2017-12-19T09:15:09.507Z,25.30
2017-12-19T09:20:37.290Z,25.40
2017-12-19T09:23:06.426Z,25.23
2017-12-19T09:25:34.937Z,24.37
2017-12-19T09:28:03.468Z,23.83
2017-12-19T09:30:31.838Z,23.50
2017-12-19T09:33:00.301Z,24.60
2017-12-19T09:35:29.419Z,27.27
2017-12-19T09:37:57.802Z,24.90
2017-12-19T09:40:26.176Z,23.30
2017-12-19T09:42:54.520Z,23.53
2017-12-19T09:45:23.692Z,22.87
2017-12-19T09:47:52.126Z,23.07
2017-12-19T09:50:20.502Z,22.33
2017-12-19T09:52:49.018Z,21.23
2017-12-19T09:55:17.423Z,23.40
2017-12-19T09:57:45.767Z,23.23
2017-12-19T10:00:13.806Z,21.37
2017-12-19T10:02:42.166Z,20.90
2017-12-19T10:05:10.652Z,20.93
2017-12-19T10:07:39.020Z,21.00
2017-12-19T10:10:08.151Z,23.27
2017-12-19T10:12:36.593Z,20.13
2017-12-19T10:15:05.879Z,22.00
2017-12-19T10:17:34.260Z,23.23
2017-12-19T10:20:03.194Z,23.20
2017-12-19T10:22:31.164Z,25.50
2017-12-19T10:24:59.511Z,23.07
2017-12-19T10:27:27.567Z,24.63
2017-12-19T10:29:56.169Z,27.80
2017-12-19T10:32:23.869Z,24.37
2017-12-19T10:34:51.900Z,24.03
2017-12-19T10:37:21.294Z,21.83
2017-12-19T10:39:51.320Z,20.20
2017-12-19T10:42:19.501Z,21.27
2017-12-19T10:44:47.527Z,21.50
2017-12-19T10:47:16.015Z,22.90
2017-12-19T10:49:44.614Z,24.03
2017-12-19T10:52:13.081Z,22.83
2017-12-19T10:54:41.436Z,24.20
2017-12-19T10:57:09.836Z,25.10
2017-12-19T10:59:38.208Z,24.47
2017-12-19T11:02:06.672Z,23.43
2017-12-19T11:04:35.278Z,23.90
2017-12-19T11:07:04.436Z,24.53
2017-12-19T11:09:32.896Z,24.57
2017-12-19T11:12:01.400Z,26.47
2017-12-19T11:14:29.905Z,25.63
2017-12-19T11:16:58.269Z,24.53
2017-12-19T11:19:26.790Z,26.10
2017-12-19T11:21:55.940Z,26.73
2017-12-19T11:24:23.929Z,25.47
2017-12-19T11:26:51.623Z,24.23
2017-12-19T11:29:19.384Z,25.67
2017-12-19T11:31:47.831Z,24.17
2017-12-19T11:34:15.884Z,23.43
2017-12-19T11:36:43.571Z,25.27
2017-12-19T11:39:12.169Z,25.17
2017-12-19T11:41:41.501Z,25.07
2017-12-19T11:44:10.192Z,22.00
2017-12-19T11:46:39.157Z,25.00
2017-12-19T11:49:08.406Z,24.00
2017-12-19T11:51:36.781Z,23.63
2017-12-19T11:54:04.827Z,24.83
2017-12-19T11:56:32.554Z,26.07
2017-12-19T11:59:02.213Z,26.17
2017-12-19T12:01:31.456Z,26.40
2017-12-19T12:04:00.712Z,27.70
2017-12-19T12:06:29.511Z,27.13
2017-12-19T12:08:57.876Z,27.63
2017-12-19T12:11:26.412Z,26.93
2017-12-19T12:13:55.830Z,30.20
2017-12-19T12:16:24.206Z,29.10
2017-12-19T12:18:52.704Z,29.83
2017-12-19T12:21:21.348Z,29.30
2017-12-19T12:23:50.510Z,28.63
2017-12-19T12:26:18.649Z,31.70
2017-12-19T12:28:47.059Z,28.80
2017-12-19T12:31:15.556Z,29.20
2017-12-19T12:33:43.926Z,30.03
2017-12-19T12:36:12.297Z,30.70
2017-12-19T12:38:40.679Z,28.57
2017-12-19T12:41:09.252Z,27.93
2017-12-19T12:43:37.614Z,26.80
2017-12-19T12:46:05.333Z,28.07
2017-12-19T12:48:34.488Z,30.20
2017-12-19T12:51:03.248Z,29.50
2017-12-19T12:53:31.637Z,28.10
2017-12-19T12:56:00.088Z,28.87
2017-12-19T12:58:28.461Z,29.93
2017-12-19T13:00:57.649Z,27.20
2017-12-19T13:03:26.578Z,30.20
2017-12-19T13:05:54.750Z,29.60
2017-12-19T13:08:23.642Z,31.50
2017-12-19T13:10:51.927Z,28.73
2017-12-19T13:13:20.289Z,29.23
2017-12-19T13:15:48.355Z,30.00
2017-12-19T13:18:16.784Z,29.97
2017-12-19T13:20:45.145Z,30.50
2017-12-19T13:23:13.606Z,30.20
2017-12-19T13:25:42.201Z,30.90
2017-12-19T13:28:10.593Z,30.03
2017-12-19T13:30:39.003Z,29.27
2017-12-19T13:33:08.153Z,28.37
2017-12-19T13:35:36.611Z,31.13
2017-12-19T13:38:05.067Z,28.33
2017-12-19T13:40:33.428Z,31.27
2017-12-19T13:43:02.833Z,29.50
2017-12-19T13:45:31.983Z,29.07
2017-12-19T13:48:00.467Z,28.77
2017-12-19T13:50:28.842Z,28.07
2017-12-19T13:52:57.911Z,28.00
2017-12-19T13:55:26.623Z,29.10
2017-12-19T13:57:55.004Z,30.83
2017-12-19T14:00:23.372Z,29.10
2017-12-19T14:02:51.727Z,28.20
2017-12-19T14:05:20.392Z,27.97
2017-12-19T14:07:49.542Z,28.57
2017-12-19T14:10:18.068Z,28.63
2017-12-19T14:12:47.189Z,27.60
2017-12-19T14:15:15.577Z,28.53
2017-12-19T14:17:43.954Z,27.90
2017-12-19T14:20:12.335Z,27.90
2017-12-19T14:22:40.688Z,26.90
2017-12-19T14:25:09.252Z,27.10
2017-12-19T14:27:38.375Z,25.67
2017-12-19T14:30:06.796Z,27.43
2017-12-19T14:32:36.703Z,26.10
2017-12-19T14:35:05.114Z,26.87
2017-12-19T14:37:34.424Z,27.60
2017-12-19T14:40:03.548Z,27.93
2017-12-19T14:42:32.026Z,24.73
2017-12-19T14:45:00.405Z,26.37
2017-12-19T14:47:28.747Z,25.80
2017-12-19T14:49:57.879Z,25.60
2017-12-19T14:52:26.213Z,27.13
2017-12-19T14:54:55.026Z,25.23
2017-12-19T14:57:23.467Z,25.00
2017-12-19T14:59:51.821Z,26.30
2017-12-19T15:02:21.100Z,25.90
2017-12-19T15:04:49.685Z,25.30
2017-12-19T15:07:18.251Z,23.87
2017-12-19T15:09:46.610Z,24.73
2017-12-19T15:12:19.309Z,24.40
2017-12-19T15:14:47.671Z,23.50
2017-12-19T15:17:16.819Z,25.43
2017-12-19T15:19:48.619Z,23.57
2017-12-19T15:22:17.820Z,23.60
2017-12-19T15:24:47.047Z,22.87
2017-12-19T15:27:15.442Z,26.00
2017-12-19T15:29:43.959Z,21.20
2017-12-19T15:32:13.297Z,22.07
2017-12-19T15:34:41.666Z,21.70
2017-12-19T15:37:10.036Z,21.17
2017-12-19T15:39:38.420Z,19.67
2017-12-19T15:42:06.780Z,19.73
2017-12-19T15:44:35.919Z,19.93
2017-12-19T15:47:04.382Z,21.20
2017-12-19T15:49:33.132Z,19.17
2017-12-19T15:52:01.531Z,19.80
2017-12-19T15:54:31.711Z,18.40
2017-12-19T15:57:00.848Z,17.30
2017-12-19T15:59:30.002Z,17.20
2017-12-19T16:01:58.355Z,17.20
2017-12-19T16:04:27.436Z,18.13
2017-12-19T16:06:55.839Z,18.13
2017-12-19T16:09:24.206Z,17.50
2017-12-19T16:11:52.562Z,19.53
2017-12-19T16:14:20.959Z,17.50
2017-12-19T16:16:49.602Z,17.90
2017-12-19T16:19:19.121Z,17.93
2017-12-19T16:21:48.455Z,17.53
2017-12-19T16:24:16.877Z,19.50
2017-12-19T16:26:46.018Z,18.30
2017-12-19T16:29:14.399Z,18.40
2017-12-19T16:31:42.992Z,19.03
2017-12-19T16:34:11.378Z,17.63
2017-12-19T16:36:39.839Z,18.70
2017-12-19T16:39:08.207Z,18.57
2017-12-19T16:41:37.675Z,18.70
2017-12-19T16:44:06.456Z,19.30
2017-12-19T16:46:35.393Z,18.80
2017-12-19T16:49:04.462Z,18.60
2017-12-19T16:51:33.610Z,20.80
2017-12-19T16:54:01.989Z,21.27
2017-12-19T16:56:30.444Z,21.80
2017-12-19T16:58:58.975Z,20.63
2017-12-19T17:01:28.092Z,21.80
2017-12-19T17:03:57.213Z,20.93
2017-12-19T17:06:25.775Z,22.20
2017-12-19T17:08:53.952Z,20.70
2017-12-19T17:11:22.308Z,22.20
2017-12-19T17:13:51.419Z,23.13
2017-12-19T17:16:19.816Z,22.80
2017-12-19T17:18:48.186Z,22.43
2017-12-19T17:21:16.545Z,22.60
2017-12-19T17:23:45.674Z,22.00
2017-12-19T17:26:14.040Z,24.03
2017-12-19T17:28:42.592Z,22.67
2017-12-19T17:31:11.963Z,23.63
2017-12-19T17:33:40.463Z,24.43
2017-12-19T17:36:09.011Z,23.27
2017-12-19T17:38:37.688Z,22.20
2017-12-19T17:41:06.052Z,23.33
2017-12-19T17:43:34.388Z,24.33
2017-12-19T17:46:03.511Z,23.47
2017-12-19T17:48:31.919Z,22.13
2017-12-19T17:51:00.285Z,22.00
2017-12-19T17:53:28.644Z,23.30
2017-12-19T17:55:57.032Z,24.10
2017-12-19T17:58:25.581Z,22.97
2017-12-19T18:00:54.704Z,24.30
2017-12-19T18:03:23.066Z,24.43
2017-12-19T18:05:52.267Z,24.20
2017-12-19T18:08:20.634Z,23.50
2017-12-19T18:10:49.784Z,21.07
2017-12-19T18:13:18.176Z,21.90
2017-12-19T18:15:46.809Z,21.43
2017-12-19T18:18:15.212Z,21.90
2017-12-19T18:20:43.637Z,21.97
2017-12-19T18:23:12.014Z,21.80
2017-12-19T18:25:40.451Z,21.13
2017-12-19T18:28:09.157Z,22.43
2017-12-19T18:30:37.620Z,20.80
2017-12-19T18:33:06.037Z,21.17
2017-12-19T18:35:35.409Z,21.30
2017-12-19T18:38:04.376Z,22.70
2017-12-19T18:40:33.122Z,21.47
2017-12-19T18:43:01.846Z,24.60
2017-12-19T18:45:30.556Z,21.43
2017-12-19T18:47:58.981Z,23.00
2017-12-19T18:50:28.363Z,21.63
2017-12-19T18:52:57.856Z,20.83
2017-12-19T18:55:27.324Z,19.93
2017-12-19T18:57:56.001Z,20.47
2017-12-19T19:00:25.297Z,22.47
2017-12-19T19:02:54.091Z,19.30
2017-12-19T19:05:22.579Z,19.73
2017-12-19T19:07:51.465Z,21.80
2017-12-19T19:10:19.923Z,19.07
2017-12-19T19:12:48.624Z,19.63
2017-12-19T19:15:17.313Z,18.63
2017-12-19T19:17:46.248Z,21.03
2017-12-19T19:20:15.705Z,18.87
2017-12-19T19:22:44.416Z,18.93
2017-12-19T19:25:13.894Z,21.40
2017-12-19T19:27:42.580Z,21.87
2017-12-19T19:30:11.276Z,22.87
2017-12-19T19:32:40.169Z,21.33
2017-12-19T19:35:09.277Z,24.20
2017-12-19T19:37:38.856Z,24.67
2017-12-19T19:40:07.542Z,24.23
2017-12-19T19:42:36.325Z,24.47
2017-12-19T19:45:04.711Z,24.10
2017-12-19T19:47:33.497Z,27.60
2017-12-19T19:50:03.002Z,25.33
2017-12-19T19:52:32.499Z,25.93
2017-12-19T19:55:01.615Z,25.67
2017-12-19T19:57:30.998Z,25.20
2017-12-19T19:59:59.898Z,25.87
2017-12-19T20:02:28.778Z,29.33
2017-12-19T20:04:57.972Z,27.60
2017-12-19T20:07:26.762Z,31.03
2017-12-19T20:09:55.655Z,28.97
2017-12-19T20:12:24.565Z,29.57
2017-12-19T20:14:54.047Z,30.43
2017-12-19T20:17:22.756Z,31.73
2017-12-19T20:19:52.451Z,29.50
2017-12-19T20:22:21.829Z,31.00
2017-12-19T20:24:50.737Z,28.90
2017-12-19T20:27:19.620Z,28.40
2017-12-19T20:29:48.517Z,27.03
2017-12-19T20:32:17.301Z,28.30
2017-12-19T20:34:46.196Z,27.03
2017-12-19T20:37:15.038Z,26.43
2017-12-19T20:39:43.962Z,25.53
2017-12-19T20:42:12.658Z,26.87
2017-12-19T20:44:41.487Z,29.57
2017-12-19T20:47:10.232Z,27.90
2017-12-19T20:49:39.062Z,27.63
2017-12-19T20:52:07.807Z,26.73
2017-12-19T20:54:36.591Z,28.23
2017-12-19T20:57:04.966Z,28.60
2017-12-19T20:59:33.753Z,26.80
2017-12-19T21:02:02.348Z,28.50
2017-12-19T21:04:31.994Z,28.77
2017-12-19T21:07:01.494Z,26.60
2017-12-19T21:09:31.778Z,26.10
2017-12-19T21:12:00.575Z,28.40
2017-12-19T21:14:29.444Z,26.60
2017-12-19T21:16:58.032Z,27.40
2017-12-19T21:19:26.621Z,27.67
2017-12-19T21:21:55.254Z,28.10
2017-12-19T21:24:23.749Z,27.47
2017-12-19T21:26:52.354Z,27.87
2017-12-19T21:29:20.814Z,27.07
2017-12-19T21:31:50.007Z,29.30
2017-12-19T21:34:18.573Z,29.20
2017-12-19T21:36:47.917Z,29.57
2017-12-19T21:39:16.663Z,29.40
2017-12-19T21:41:45.847Z,29.20
2017-12-19T21:44:15.058Z,28.50
2017-12-19T21:46:43.436Z,29.37
2017-12-19T21:49:11.815Z,27.80
2017-12-19T21:51:40.184Z,30.70
2017-12-19T21:54:08.569Z,29.07
2017-12-19T21:56:36.967Z,29.40
2017-12-19T21:59:06.327Z,30.40
2017-12-19T22:01:34.716Z,29.90
2017-12-19T22:04:03.115Z,28.43
2017-12-19T22:06:32.532Z,29.70
2017-12-19T22:09:00.943Z,28.13
2017-12-19T22:11:29.387Z,31.40
2017-12-19T22:13:57.820Z,28.13
2017-12-19T22:16:26.210Z,30.73
2017-12-19T22:18:54.589Z,29.07
2017-12-19T22:21:22.983Z,28.43
2017-12-19T22:23:52.432Z,30.10
2017-12-19T22:26:20.851Z,28.23
2017-12-19T22:28:49.391Z,28.57
2017-12-19T22:31:17.846Z,28.07
2017-12-19T22:33:46.219Z,30.47
2017-12-19T22:36:15.379Z,27.80
2017-12-19T22:38:43.789Z,29.20
2017-12-19T22:41:13.669Z,30.53
2017-12-19T22:43:42.148Z,29.70
2017-12-19T22:46:10.701Z,30.03
2017-12-19T22:48:39.332Z,28.20
2017-12-19T22:51:07.706Z,30.83
2017-12-19T22:53:36.071Z,29.63
2017-12-19T22:56:04.509Z,30.47
2017-12-19T22:58:33.401Z,28.53
2017-12-19T23:01:01.460Z,30.53
2017-12-19T23:03:30.004Z,31.10
2017-12-19T23:05:59.198Z,30.70
2017-12-19T23:08:27.763Z,30.37
2017-12-19T23:10:56.151Z,29.97
2017-12-19T23:13:24.543Z,29.80
2017-12-19T23:15:53.005Z,30.87
2017-12-19T23:18:21.390Z,30.50
2017-12-19T23:20:50.581Z,30.10
2017-12-19T23:23:18.979Z,32.60
2017-12-19T23:25:48.433Z,33.00
2017-12-19T23:28:17.128Z,32.00
2017-12-19T23:30:45.708Z,32.00
2017-12-19T23:33:14.101Z,33.00
2017-12-19T23:35:42.499Z,32.03
2017-12-19T23:38:11.954Z,33.83
2017-12-19T23:40:40.311Z,33.40
2017-12-19T23:43:08.819Z,34.30
2017-12-19T23:45:37.223Z,32.73
2017-12-19T23:48:05.665Z,31.80
2017-12-19T23:50:34.093Z,36.90
2017-12-19T23:53:02.601Z,31.50
2017-12-19T23:55:30.988Z,34.63
2017-12-19T23:57:59.034Z,33.20
